• Back
  •  
  • Position of Reservoir Gates
S.No.
No. of opened gates
Position of opening (In m)
Reporting Date
Reporting Time
Discharge in Cumecs
Discharge in Cusecs
Actual date and time of Gate opening
1
2
3
4
5
6
7
8
1 1 17/09/2012 9:00:37 AM 19
2 1 18/09/2012 9:26:27 AM 18
3 0 19/09/2012 8:43:51 AM 0
4 0 20/09/2012 9:01:33 AM 0
5 0 21/09/2012 8:25:13 AM 0
6 0 22/09/2012 8:45:55 AM 0
7 0 23/09/2012 9:54:08 AM 0
8 2 11/09/2012 5:16:55 PM 183.1
9 2 12/09/2012 9:14:45 AM 172.98
10 1 13/09/2012 9:04:11 AM 30
11 1 14/09/2012 9:39:20 AM 23.6
12 1 15/09/2012 9:17:25 AM 19
13 1 16/09/2012 8:46:06 AM 19
14 2 06/09/2012 11:42:16 AM 190
15 2 07/09/2012 8:52:56 AM 190
16 2 07/09/2012 9:01:00 AM 190
17 0 24/09/2012 8:50:13 AM 0
18 0 25/09/2012 8:24:26 AM 0
19 0 26/09/2012 8:33:51 AM 0
20 0 27/09/2012 8:25:46 AM 0
21 0 08/09/2012 9:12:08 AM 0
22 0 09/09/2012 8:16:00 AM 0
23 0 10/09/2012 8:35:37 AM 0
24 0 29/09/2012 9:10:19 AM 0
25 0 30/09/2012 8:59:00 AM 0
26 0 01/10/2012 9:02:03 AM 0
27 0 02/10/2012 9:08:15 AM 0
28 0 03/10/2012 9:05:31 AM 0
29 0 04/10/2012 8:43:04 AM 0
30 0 05/10/2012 8:52:49 AM 0
31 0 06/10/2012 8:54:04 AM 0
32 0 07/10/2012 9:05:41 AM 0
33 0 08/10/2012 8:56:40 AM 0
34 0 08/10/2012 1:17:51 PM 0
35 0 09/10/2012 9:01:16 AM 0
36 0 10/10/2012 9:22:19 AM 0
37 0 11/10/2012 8:58:33 AM 0
38 0 12/10/2012 8:17:47 AM 0
39 0 13/10/2012 8:57:47 AM 0
40 0 14/10/2012 8:20:28 AM 0
41 0 16/10/2012 8:47:11 AM 0
42 0 17/10/2012 8:35:34 AM 0
43 0 21/10/2012 8:40:48 AM 0
44 0 22/10/2012 9:22:08 AM 0
45 0 22/10/2012 9:22:08 AM 0
46 0 23/10/2012 10:02:29 AM 0
47 4 18/07/2013 9:38:13 AM 200
48 4 19/07/2013 9:47:13 AM 200
49 0 22/07/2013 12:28:18 PM 0
50 4 25/07/2013 10:08:58 AM 200
51 4 26/07/2013 9:21:11 AM 200
52 0 27/07/2013 12:11:39 PM 0
53 0 28/07/2013 9:14:39 AM 0
54 0 29/07/2013 3:23:07 PM 0
55 0 31/07/2013 10:29:24 AM 0
56 4 01/08/2013 9:52:22 AM 200
57 4 01/08/2013 10:19:49 AM 200
58 4 02/08/2013 10:19:49 AM 116
59 2 03/08/2013 10:00:46 AM 116
60 0 04/08/2013 9:49:57 AM 0
61 0 05/08/2013 9:03:46 AM 0
62 0 06/08/2013 9:04:53 AM 0
63 4 07/08/2013 10:21:46 AM 240
64 2 08/08/2013 8:57:46 AM 60
65 1 09/08/2013 8:39:46 AM 30
66 1 09/08/2013 8:45:46 AM 30
67 1 10/08/2013 9:33:46 AM 30
68 1 11/08/2013 10:10:01 AM 30
69 1 12/08/2013 9:53:29 AM 30
70 1 12/08/2013 12:23:29 PM 30
71 1 12/08/2013 12:23:29 PM 30
72 4 13/08/2013 8:20:29 AM 280
73 4 14/08/2013 9:34:58 AM 280
74 2 15/08/2013 8:52:26 AM 60
75 0 16/08/2013 9:46:26 AM 0
76 0 17/08/2013 9:33:54 AM 0
77 2 18/08/2013 8:15:54 AM 30
78 4 18/08/2013 8:39:54 AM 300
79 4 18/08/2013 8:39:54 AM 300
80 2 20/08/2013 7:30:27 AM 60
81 2 20/08/2013 7:30:27 AM 60
82 2 20/08/2013 7:30:27 AM 60
83 2 20/08/2013 8:03:34 AM 30
84 4 21/08/2013 8:55:10 AM 310
85 4 22/08/2013 9:43:12 AM 390
86 4 23/08/2013 9:22:12 AM 390
87 2 24/08/2013 9:28:12 AM 60
88 2 25/08/2013 8:18:56 AM 60
89 2 25/08/2013 8:27:56 AM 60
90 2 26/08/2013 8:50:37 AM 60
91 2 27/08/2013 9:02:37 AM 60
92 2 28/08/2013 9:44:12 AM 60
93 2 28/08/2013 12:44:12 PM 60
94 2 29/08/2013 8:44:13 AM 60
95 1 30/08/2013 8:38:16 AM 45
96 1 30/08/2013 8:44:16 AM 45
97 1 31/08/2013 8:19:45 AM 30
98 1 01/09/2013 8:55:45 AM 15
99 0 02/09/2013 8:16:45 AM 0
100 0 03/09/2013 8:25:14 AM 0
101 0 04/09/2013 8:13:17 AM 0
102 0 05/09/2013 8:49:18 AM 0
103 0 06/09/2013 9:10:18 AM 0
104 1 07/09/2013 8:16:18 AM 30
105 0 08/09/2013 8:34:18 AM 0
106 0 09/09/2013 8:16:18 AM 0
107 0 09/09/2013 9:46:03 AM 0
108 0 10/09/2013 8:21:32 AM 0
109 0 11/09/2013 9:00:16 AM 0
110 0 12/09/2013 8:51:17 AM 0
111 0 13/09/2013 8:15:17 AM 0
112 0 13/09/2013 8:24:17 AM 0
113 0 14/09/2013 10:18:17 AM 0
114 0 15/09/2013 10:49:09 AM 0
115 0 16/09/2013 9:43:09 AM 0
116 0 17/09/2013 9:01:09 AM 0
117 0 19/09/2013 11:37:10 AM 0
118 0 19/09/2013 11:40:10 AM 0
119 0 20/09/2013 10:07:17 AM 0
120 2 21/09/2013 8:34:17 AM 100
121 2 22/09/2013 8:22:17 AM 70
122 2 23/09/2013 8:43:17 AM 200
123 0 24/09/2013 8:28:18 AM 0
124 0 25/09/2013 8:37:18 AM 0
125 0 26/09/2013 8:37:18 AM 0
126 1 27/09/2013 8:57:24 AM 17
127 1 28/09/2013 8:36:24 AM 17
128 0 29/09/2013 8:51:24 AM 0
129 0 30/09/2013 8:21:24 AM 0
130 0 30/09/2013 9:54:24 AM 0
131 1 01/10/2013 9:09:24 AM 17
132 1 01/10/2013 9:12:24 AM 17
133 1 02/10/2013 8:22:27 AM 17
134 1 02/10/2013 9:49:27 AM 17
135 1 03/10/2013 8:58:27 AM 35
136 2 04/10/2013 8:37:27 AM 100
137 2 05/10/2013 8:41:48 AM 100
138 2 05/10/2013 8:47:48 AM 100
139 2 05/10/2013 8:47:48 AM 100
140 2 06/10/2013 8:17:48 AM 100
141 2 06/10/2013 8:23:48 AM 100
142 1 07/10/2013 9:05:48 AM 35
143 1 07/10/2013 9:11:48 AM 35
144 1 08/10/2013 8:35:48 AM 35
145 1 09/10/2013 8:44:48 AM 35
146 1 10/10/2013 8:47:48 AM 17
147 1 10/10/2013 8:50:48 AM 17
148 1 11/10/2013 9:37:48 AM 17
149 1 11/10/2013 11:10:48 AM 17
150 1 12/10/2013 9:02:00 AM 35
151 1 13/10/2013 8:19:56 AM 35
152 1 14/10/2013 9:25:40 AM 35
153 1 14/10/2013 9:34:40 AM 35
154 1 15/10/2013 8:55:40 AM 17
155 0 16/10/2013 8:10:40 AM 0
156 0 17/10/2013 8:34:40 AM 0
157 0 18/10/2013 8:25:42 AM 0
158 0 19/10/2013 8:04:27 AM 0
159 0 20/10/2013 8:57:55 AM 0
160 0 21/10/2013 8:12:55 AM 0
161 0 22/10/2013 8:06:55 AM 0
162 0 23/10/2013 8:15:55 AM 0
163 0 24/10/2013 8:18:55 AM 0
164 0 26/10/2013 8:12:57 AM 0
165 0 27/10/2013 8:15:57 AM 0
166 0 28/10/2013 8:27:57 AM 0
167 0 29/10/2013 8:12:57 AM 0
168 0 30/10/2013 8:03:57 AM 0
169 0 31/10/2013 8:40:38 AM 0
170 0 01/11/2013 9:01:48 AM 0
171 0 02/11/2013 8:22:17 AM 0
172 0 03/11/2013 9:34:17 AM 0
173 0 04/11/2013 9:38:17 AM 0
174 0 05/11/2013 8:18:17 AM 0
175 0 06/11/2013 8:14:17 AM 0
176 0 07/11/2013 8:26:46 AM 0
177 0 08/11/2013 8:18:46 AM 0
178 0 09/11/2013 8:06:46 AM 0
179 0 10/11/2013 8:22:46 AM 0
180 0 11/11/2013 8:58:46 AM 0
181 0 11/11/2013 9:06:46 AM 0
182 0 12/11/2013 8:10:46 AM 0
183 0 13/11/2013 8:38:46 AM 0
184 0 14/11/2013 8:34:46 AM 0
185 0 15/11/2013 4:10:46 PM 0
186 0 16/11/2013 8:14:46 AM 0
187 0 18/11/2013 8:14:46 AM 0
188 0 19/11/2013 8:18:46 AM 0
189 0 21/11/2013 8:07:15 AM 0
190 0 22/11/2013 8:15:15 AM 0
191 0 23/11/2013 12:43:15 PM 0
192 0 24/11/2013 7:55:15 AM 0
193 0 25/11/2013 9:31:15 AM 0
194 0 27/11/2013 11:59:15 AM 0
195 0 28/11/2013 9:15:15 AM 0
196 0 29/11/2013 10:27:15 AM 0
197 0 30/11/2013 10:19:44 AM 0
198 0 02/12/2013 8:13:41 AM 0
199 0 03/12/2013 8:57:41 AM 0
200 0 04/12/2013 8:29:41 AM 0
201 0 05/12/2013 8:38:09 AM 0
202 0 06/12/2013 8:14:09 AM 0
203 0 07/12/2013 8:18:09 AM 0
204 0 08/12/2013 8:54:09 AM 0
205 0 09/12/2013 9:30:09 AM 0
206 0 10/12/2013 9:34:09 AM 0
207 0 11/12/2013 8:34:38 AM 0
208 0 13/12/2013 8:26:38 AM 0
209 0 14/12/2013 8:46:15 AM 0
210 0 16/12/2013 8:26:15 AM 0
211 0 17/12/2013 10:38:15 AM 0
212 0 18/12/2013 8:22:15 AM 0
213 0 19/12/2013 8:22:15 AM 0
214 0 20/12/2013 8:22:15 AM 0
215 0 21/12/2013 8:24:16 AM 0
216 0 22/12/2013 8:20:16 AM 0
217 0 23/12/2013 8:28:16 AM 0
218 0 24/12/2013 10:24:45 AM 0
219 0 25/12/2013 8:32:45 AM 0
220 0 26/12/2013 9:08:45 AM 0
221 0 27/12/2013 8:36:45 AM 0
222 0 28/12/2013 9:28:45 AM 0
223 0 29/12/2013 8:44:45 AM 0
224 0 30/12/2013 8:44:45 AM 0
225 0 31/12/2013 8:44:45 AM 0
226 0 01/01/2014 8:32:49 AM 0
227 0 02/01/2014 11:12:49 AM 0
228 0 03/01/2014 8:24:49 AM 0
229 0 04/01/2014 10:12:49 AM 0
230 0 05/01/2014 9:08:49 AM 0
231 0 07/01/2014 8:40:49 AM 0
232 0 08/01/2014 9:32:50 AM 0
233 0 09/01/2014 10:20:50 AM 0
234 0 10/01/2014 8:04:50 AM 0
235 0 11/01/2014 10:12:50 AM 0
236 0 12/01/2014 8:08:50 AM 0
237 0 13/01/2014 10:20:50 AM 0
238 0 14/01/2014 7:56:50 AM 0
239 0 15/01/2014 1:29:54 PM 0
240 0 15/01/2014 3:37:54 PM 0
241 0 16/01/2014 8:33:54 AM 0
242 0 17/01/2014 10:53:54 AM 0
243 0 18/01/2014 9:13:54 AM 0
244 0 19/01/2014 8:21:54 AM 0
245 0 20/01/2014 10:59:41 AM 0
246 0 21/01/2014 8:47:41 AM 0
247 0 22/01/2014 9:19:43 AM 0
248 0 23/01/2014 8:59:52 AM 0
249 0 24/01/2014 8:39:52 AM 0
250 0 25/01/2014 8:59:53 AM 0
251 0 26/01/2014 10:15:53 AM 0
252 0 27/01/2014 8:43:53 AM 0
253 0 28/01/2014 9:55:53 AM 0
254 0 29/01/2014 1:51:53 PM 0
255 0 30/01/2014 8:51:53 AM 0
256 0 30/01/2014 8:55:53 AM 0
257 0 31/01/2014 7:08:28 PM 0
258 0 01/02/2014 9:28:32 AM 0
259 0 03/02/2014 8:52:32 AM 0
260 0 04/02/2014 11:52:32 AM 0
261 0 05/02/2014 9:48:32 AM 0
262 0 06/02/2014 8:32:32 AM 0
263 0 07/02/2014 8:08:32 AM 0
264 0 08/02/2014 8:56:32 AM 0
265 0 09/02/2014 12:48:36 PM 0
266 0 10/02/2014 8:40:36 AM 0
267 0 11/02/2014 8:28:36 AM 0
268 0 14/02/2014 8:39:16 AM 0
269 0 15/02/2014 9:55:16 AM 0
270 0 16/02/2014 8:43:16 AM 0
271 0 18/02/2014 9:27:46 AM 0
272 0 19/02/2014 11:27:47 AM 0
273 0 21/02/2014 9:11:47 AM 0
274 0 22/02/2014 10:23:05 AM 0
275 0 23/02/2014 8:51:05 AM 0
276 0 24/02/2014 10:35:05 AM 0
277 0 25/02/2014 9:15:05 AM 0
278 0 26/02/2014 9:19:36 AM 0
279 0 27/02/2014 8:35:36 AM 0
280 0 28/02/2014 8:35:36 AM 0
281 0 01/03/2014 8:11:36 AM 0
282 0 03/03/2014 7:36:55 AM 0
283 0 03/03/2014 9:04:55 AM 0
284 0 04/03/2014 9:12:55 AM 0
285 0 05/03/2014 9:08:55 AM 0
286 0 06/03/2014 8:04:58 AM 0
287 0 07/03/2014 8:16:58 AM 0
288 0 08/03/2014 9:09:57 AM 0
289 0 09/03/2014 9:01:57 AM 0
290 0 13/03/2014 8:58:56 AM 0
291 0 14/03/2014 8:26:56 AM 0
292 0 18/03/2014 9:14:56 AM 0
293 0 21/03/2014 8:31:41 AM 0
294 0 22/03/2014 8:15:41 AM 0
295 0 23/03/2014 8:22:30 AM 0
296 0 25/03/2014 8:23:51 AM 0
297 0 28/03/2014 11:52:12 AM 0
298 0 29/03/2014 8:16:12 AM 0
299 0 30/03/2014 8:48:55 AM 0
300 0 31/03/2014 8:56:55 AM 0
301 0 01/04/2014 8:08:55 AM 0
302 0 03/04/2014 8:28:55 AM 0
303 0 05/04/2014 10:12:55 AM 0
304 0 06/04/2014 9:53:25 AM 0
305 0 11/04/2014 10:53:26 AM 0
306 0 13/04/2014 9:05:55 AM 0
307 0 14/04/2014 10:33:55 AM 0
308 0 15/04/2014 8:25:55 AM 0
309 0 16/04/2014 11:53:55 AM 0
310 0 16/04/2014 11:57:55 AM 0
311 0 17/04/2014 8:37:55 AM 0
312 0 19/04/2014 9:09:55 AM 0
313 0 20/04/2014 11:17:55 AM 0
314 0 22/04/2014 8:25:55 AM 0
315 0 23/04/2014 11:29:55 AM 0
316 0 08/06/2014 9:28:41 AM 0
317 0 09/06/2014 8:08:41 AM 0
318 0 10/06/2014 12:52:41 PM 0
319 0 11/06/2014 8:24:41 AM 0
320 0 13/06/2014 8:32:42 AM 0
321 0 14/06/2014 10:24:42 AM 0
322 0 15/06/2014 9:12:42 AM 0
323 0 16/06/2014 8:36:42 AM 0
324 0 17/06/2014 10:04:42 AM 0
325 0 18/06/2014 9:33:11 AM 0
326 0 19/06/2014 10:09:42 AM 0
327 0 20/06/2014 8:13:42 AM 0
328 0 21/06/2014 8:21:45 AM 0
329 0 22/06/2014 8:57:45 AM 0
330 0 23/06/2014 9:37:45 AM 0
331 0 24/06/2014 8:41:45 AM 0
332 0 25/06/2014 12:37:45 PM 0
333 0 27/06/2014 9:13:45 AM 0
334 0 28/06/2014 8:49:45 AM 0
335 0 29/06/2014 9:25:45 AM 0
336 0 29/06/2014 9:49:45 AM 0
337 0 30/06/2014 8:18:16 AM 0
338 0 01/07/2014 8:06:16 AM 0
339 0 02/07/2014 10:26:16 AM 0
340 0 03/07/2014 8:26:16 AM 0
341 0 05/07/2014 9:04:29 AM 0
342 0 06/07/2014 9:00:29 AM 0
343 0 07/07/2014 8:36:29 AM 0
344 0 08/07/2014 8:40:58 AM 0
345 0 09/07/2014 8:16:58 AM 0
346 0 10/07/2014 8:28:58 AM 0
347 0 12/07/2014 8:16:58 AM 0
348 0 13/07/2014 8:16:58 AM 0
349 0 15/07/2014 9:05:45 AM 0
350 0 16/07/2014 8:49:46 AM 0
351 0 17/07/2014 8:49:46 AM 0
352 0 18/07/2014 9:05:46 AM 0
353 0 19/07/2014 8:44:46 AM 0
354 0 20/07/2014 8:29:15 AM 0
355 0 21/07/2014 12:23:36 PM 0
356 0 22/07/2014 10:47:36 AM 0
357 0 25/07/2014 8:24:34 AM 0
358 0 26/07/2014 9:32:05 AM 0
359 0 27/07/2014 9:00:05 AM 0
360 0 28/07/2014 8:24:05 AM 0
361 0 30/07/2014 8:24:05 AM 0
362 0 31/07/2014 8:16:05 AM 0
363 0 01/08/2014 8:20:05 AM 0
364 0 01/08/2014 8:24:05 AM 0
365 0 02/08/2014 8:08:05 AM 0
366 0 03/08/2014 8:36:08 AM 0
367 0 05/08/2014 8:03:40 AM 0
368 0 06/08/2014 8:19:40 AM 0
369 0 08/08/2014 8:11:40 AM 0
370 0 09/08/2014 8:15:40 AM 0
371 0 11/08/2014 8:11:42 AM 0
372 0 12/08/2014 7:35:42 AM 0
373 0 14/08/2014 8:23:42 AM 0
374 0 15/08/2014 8:03:42 AM 0
375 0 16/08/2014 8:27:42 AM 0
376 0 16/08/2014 8:27:42 AM 0
377 0 17/08/2014 8:39:42 AM 0
378 0 18/08/2014 8:07:42 AM 0
379 0 19/08/2014 8:11:43 AM 0
380 0 20/08/2014 8:47:43 AM 0
381 0 20/08/2014 8:47:43 AM 0
382 0 21/08/2014 8:35:43 AM 0
383 0 22/08/2014 8:15:43 AM 0
384 0 23/08/2014 8:15:45 AM 0
385 0 24/08/2014 11:39:45 AM 0
386 0 25/08/2014 11:59:45 AM 0
387 0 26/08/2014 8:35:45 AM 0
388 0 27/08/2014 8:07:45 AM 0
389 0 29/08/2014 8:15:45 AM 0
390 0 30/08/2014 8:11:45 AM 0
391 0 31/08/2014 7:59:45 AM 0
392 0 01/09/2014 8:07:45 AM 0
393 0 02/09/2014 8:23:45 AM 0
394 0 03/09/2014 8:11:45 AM 0
395 0 04/09/2014 8:51:45 AM 0
396 0 05/09/2014 8:15:45 AM 0
397 0 06/09/2014 8:11:45 AM 0
398 0 07/09/2014 8:11:45 AM 0
399 0 09/09/2014 9:55:45 AM 0
400 0 10/09/2014 8:19:45 AM 0
401 0 11/09/2014 8:19:45 AM 0
402 0 12/09/2014 8:15:45 AM 0
403 0 13/09/2014 8:15:45 AM 0
404 0 15/09/2014 11:14:34 AM 0
405 0 16/09/2014 8:18:34 AM 0
406 0 17/09/2014 8:02:34 AM 0
407 0 18/09/2014 8:14:34 AM 0
408 0 19/09/2014 9:46:34 AM 0
409 0 19/09/2014 9:46:34 AM 0
410 0 21/09/2014 8:10:35 AM 0
411 0 22/09/2014 8:34:35 AM 0
412 0 23/09/2014 8:14:35 AM 0
413 0 24/09/2014 8:06:35 AM 0
414 0 26/09/2014 8:30:35 AM 0
415 0 27/09/2014 8:38:35 AM 0
416 0 28/09/2014 8:14:35 AM 0
417 0 29/09/2014 9:50:06 AM 0
418 0 30/09/2014 8:11:19 AM 0
419 0 01/10/2014 8:23:19 AM 0
420 0 02/10/2014 8:35:19 AM 0
421 0 04/10/2014 8:47:19 AM 0
422 0 05/10/2014 9:51:19 AM 0
423 0 06/10/2014 8:03:19 AM 0
424 0 07/10/2014 11:32:13 AM 0
425 0 07/10/2014 11:44:13 AM 0
426 0 08/10/2014 8:12:13 AM 0
427 0 09/10/2014 8:20:13 AM 0
428 0 10/10/2014 8:36:13 AM 0
429 0 12/10/2014 8:44:13 AM 0
430 0 13/10/2014 8:20:13 AM 0
431 0 14/10/2014 8:20:13 AM 0
432 0 15/10/2014 8:04:14 AM 0
433 0 16/10/2014 8:04:14 AM 0
434 0 17/10/2014 8:36:14 AM 0
435 0 18/10/2014 8:52:14 AM 0
436 0 19/10/2014 8:20:14 AM 0
437 0 20/10/2014 8:16:14 AM 0
438 0 21/10/2014 8:24:14 AM 0
439 0 22/10/2014 4:20:14 PM 0
440 0 24/10/2014 8:32:14 AM 0
441 0 25/10/2014 9:00:14 AM 0
442 0 26/10/2014 12:39:47 PM 0
443 0 27/10/2014 8:19:12 AM 0
444 0 29/10/2014 8:47:12 AM 0
445 0 30/10/2014 8:19:12 AM 0
446 0 31/10/2014 8:15:12 AM 0
447 0 01/11/2014 8:11:12 AM 0
448 0 02/11/2014 6:02:37 PM 0
449 0 03/11/2014 8:16:41 AM 0
450 0 04/11/2014 9:00:41 AM 0
451 0 06/11/2014 8:36:41 AM 0
452 0 07/11/2014 8:16:41 AM 0
453 0 08/11/2014 9:04:41 AM 0
454 0 10/11/2014 12:06:35 PM 0
455 0 13/11/2014 11:43:40 AM 0
456 0 14/11/2014 8:11:40 AM 0
457 0 15/11/2014 8:03:40 AM 0
458 0 16/11/2014 9:19:40 AM 0
459 0 17/11/2014 8:19:40 AM 0
460 0 18/11/2014 8:07:40 AM 0
461 0 19/11/2014 9:15:41 AM 0
462 0 21/11/2014 8:16:08 AM 0
463 0 22/11/2014 8:04:08 AM 0
464 0 22/11/2014 9:08:08 AM 0
465 0 23/11/2014 8:12:08 AM 0
466 0 24/11/2014 11:36:08 AM 0
467 0 26/11/2014 10:32:59 AM 0
468 0 26/11/2014 12:02:33 PM 0
469 0 27/11/2014 8:30:33 AM 0
470 0 28/11/2014 8:42:33 AM 0
471 0 29/11/2014 8:14:33 AM 0
472 0 02/12/2014 8:30:41 AM 0
473 0 03/12/2014 11:30:41 AM 0
474 0 04/12/2014 8:22:41 AM 0
475 0 05/12/2014 11:38:41 AM 0
476 0 06/12/2014 8:18:41 AM 0
477 0 07/12/2014 8:18:41 AM 0
478 0 07/12/2014 8:50:41 AM 0
479 0 08/12/2014 8:06:41 AM 0
480 0 09/12/2014 8:02:41 AM 0
481 0 10/12/2014 11:38:41 AM 0
482 0 11/12/2014 11:30:41 AM 0
483 0 11/12/2014 11:30:41 AM 0
484 0 12/12/2014 8:02:41 AM 0
485 0 13/12/2014 8:34:41 AM 0
486 0 14/12/2014 9:14:41 AM 0
487 0 15/12/2014 9:46:50 AM 0
488 0 15/12/2014 10:10:50 AM 0
489 0 16/12/2014 8:14:50 AM 0
490 0 17/12/2014 7:58:50 AM 0
491 0 18/12/2014 8:02:50 AM 0
492 0 19/12/2014 8:34:50 AM 0
493 0 20/12/2014 9:30:50 PM 0
494 0 21/12/2014 8:38:50 AM 0
495 0 22/12/2014 8:06:50 AM 0
496 0 23/12/2014 7:54:50 AM 0
497 0 24/12/2014 9:14:50 AM 0
498 0 25/12/2014 7:58:50 AM 0
499 0 26/12/2014 8:14:50 AM 0
500 0 27/12/2014 8:46:50 AM 0
501 0 28/12/2014 8:46:50 AM 0
502 0 29/12/2014 8:02:50 AM 0
503 0 30/12/2014 8:30:50 AM 0
504 0 03/01/2015 8:14:51 AM 0
505 0 05/01/2015 11:08:52 AM 0
506 0 05/01/2015 12:36:52 PM 0
507 0 06/01/2015 8:12:52 AM 0
508 0 08/01/2015 8:16:56 AM 0
509 0 09/01/2015 8:48:56 AM 0
510 0 09/01/2015 8:48:56 AM 0
511 0 10/01/2015 8:12:56 PM 0
512 0 11/01/2015 9:52:56 AM 0
513 0 12/01/2015 8:44:56 AM 0
514 0 13/01/2015 8:00:56 AM 0
515 0 14/01/2015 8:08:56 AM 0
516 0 15/01/2015 8:04:56 AM 0
517 0 16/01/2015 7:24:56 AM 0
518 0 18/01/2015 8:56:56 AM 0
519 0 19/01/2015 8:34:39 AM 0
520 0 20/01/2015 8:30:39 AM 0
521 0 20/01/2015 8:30:39 AM 0
522 0 21/01/2015 8:38:39 AM 0
523 0 22/01/2015 8:46:39 AM 0
524 0 23/01/2015 8:46:39 AM 0
525 0 25/01/2015 9:54:41 AM 0
526 0 26/01/2015 12:06:41 PM 0
527 0 26/01/2015 1:38:41 PM 0
528 0 28/01/2015 12:26:41 PM 0
529 0 29/01/2015 8:46:41 AM 0
530 0 30/01/2015 9:38:41 AM 0
531 0 31/01/2015 8:30:41 AM 0
532 0 01/02/2015 8:34:41 AM 0
533 0 02/02/2015 8:54:41 AM 0
534 0 03/02/2015 8:50:41 AM 0
535 0 04/02/2015 8:18:41 AM 0
536 0 05/02/2015 7:58:41 AM 0
537 0 06/02/2015 8:26:41 AM 0
538 0 07/02/2015 9:18:42 AM 0
539 0 09/02/2015 8:18:44 AM 0
540 0 09/02/2015 8:34:44 AM 0
541 0 10/02/2015 8:26:44 AM 0
542 0 10/02/2015 8:50:44 AM 0
543 0 11/02/2015 8:14:44 AM 0
544 0 13/02/2015 8:10:44 AM 0
545 0 15/02/2015 8:54:44 AM 0
546 0 16/02/2015 8:46:44 AM 0
547 0 18/02/2015 8:06:44 AM 0
548 0 19/02/2015 8:02:44 AM 0
549 0 20/02/2015 8:06:44 AM 0
550 0 21/02/2015 8:06:56 AM 0
551 0 22/02/2015 8:10:56 AM 0
552 0 23/02/2015 8:10:56 AM 0
553 0 23/02/2015 9:10:56 AM 0
554 0 24/02/2015 8:30:56 AM 0
555 0 25/02/2015 9:06:56 AM 0
556 0 26/02/2015 8:50:56 AM 0
557 0 26/02/2015 8:50:56 AM 0
558 0 27/02/2015 10:54:56 AM 0
559 0 28/02/2015 11:18:56 AM 0
560 0 01/03/2015 1:54:56 PM 0
561 0 01/03/2015 1:58:56 PM 0
562 0 02/03/2015 10:50:56 AM 0
563 0 03/03/2015 8:22:56 AM 0
564 0 05/03/2015 8:38:56 AM 0
565 0 07/03/2015 9:39:00 AM 0
566 0 08/03/2015 9:43:00 AM 0
567 0 09/03/2015 8:43:00 AM 0
568 0 10/03/2015 8:35:00 AM 0
569 0 11/03/2015 8:15:00 AM 0
570 0 11/03/2015 8:39:00 AM 0
571 0 12/03/2015 8:31:00 AM 0
572 0 13/03/2015 8:19:00 AM 0
573 0 13/03/2015 8:35:00 AM 0
574 0 14/03/2015 8:27:00 AM 0
575 0 15/03/2015 8:23:00 AM 0
576 0 19/03/2015 8:19:01 AM 0
577 0 20/03/2015 8:47:01 AM 0
578 0 21/03/2015 8:07:01 AM 0
579 0 22/03/2015 8:03:01 AM 0
580 0 23/03/2015 8:23:01 AM 0
581 0 24/03/2015 8:11:01 AM 0
582 0 25/03/2015 8:15:01 AM 0
583 0 26/03/2015 8:23:01 AM 0
584 0 27/03/2015 8:03:01 AM 0
585 0 28/03/2015 8:59:01 AM 0
586 0 29/03/2015 9:51:01 AM 0
587 0 30/03/2015 8:35:01 AM 0
588 0 30/03/2015 8:59:01 AM 0
589 0 31/03/2015 8:15:01 AM 0
590 0 01/04/2015 8:15:01 AM 0
591 0 02/04/2015 8:47:01 AM 0
592 0 03/04/2015 8:07:01 AM 0
593 0 05/04/2015 8:35:12 AM 0
594 0 06/04/2015 8:23:12 AM 0
595 0 07/04/2015 8:39:12 AM 0
596 0 08/04/2015 9:07:12 AM 0
597 0 09/04/2015 9:43:12 AM 0
598 0 10/04/2015 8:43:12 AM 0
599 0 11/04/2015 8:11:12 AM 0
600 0 11/04/2015 8:31:12 AM 0
601 0 12/04/2015 8:03:12 AM 0
602 0 13/04/2015 8:43:12 AM 0
603 0 15/04/2015 8:51:12 AM 0
604 0 16/04/2015 8:39:12 AM 0
605 0 17/04/2015 8:03:12 AM 0
606 0 18/04/2015 8:43:12 AM 0
607 0 19/04/2015 8:19:12 AM 0
608 0 20/04/2015 9:27:12 AM 0
609 0 22/04/2015 8:27:12 AM 0
610 0 25/04/2015 11:19:12 AM 0
611 0 26/04/2015 9:23:12 AM 0
612 0 27/04/2015 8:23:13 AM 0
613 0 28/04/2015 8:19:13 AM 0
614 0 28/04/2015 9:07:13 AM 0
615 0 29/04/2015 8:03:13 AM 0
616 0 01/05/2015 8:15:13 AM 0
617 0 03/05/2015 8:03:13 AM 0
618 0 04/05/2015 8:47:13 AM 0
619 0 05/05/2015 9:11:13 AM 0
620 0 06/05/2015 8:11:18 AM 0
621 0 07/05/2015 8:11:18 AM 0
622 0 08/05/2015 9:27:18 AM 0
623 0 09/05/2015 8:31:18 AM 0
624 0 10/05/2015 8:27:18 AM 0
625 0 14/05/2015 11:54:21 AM 0
626 0 14/05/2015 7:13:42 PM 0
627 0 15/05/2015 8:09:42 AM 0
628 0 16/05/2015 8:21:42 AM 0
629 0 17/05/2015 8:09:42 AM 0
630 0 18/05/2015 8:01:42 AM 0
631 0 19/05/2015 8:13:42 AM 0
632 0 19/05/2015 8:13:42 AM 0
633 0 05/06/2015 12:59:57 PM 0
634 0 05/06/2015 4:55:33 PM 0
635 0 06/06/2015 8:43:33 AM 0
636 0 06/06/2015 8:43:33 AM 0
637 0 08/06/2015 9:51:33 AM 0
638 0 10/06/2015 7:59:42 AM 0
639 0 11/06/2015 8:59:42 AM 0
640 0 12/06/2015 9:59:42 AM 0
641 0 13/06/2015 10:47:42 AM 0
642 0 14/06/2015 8:03:42 AM 0
643 0 15/06/2015 9:47:43 AM 0
644 0 16/06/2015 9:43:43 AM 0
645 0 17/06/2015 8:55:43 AM 0
646 0 19/06/2015 8:51:43 AM 0
647 0 20/06/2015 8:51:43 AM 0
648 0 22/06/2015 8:23:45 AM 0
649 0 25/06/2015 8:27:00 AM 0
650 0 26/06/2015 7:59:00 AM 0
651 0 26/06/2015 1:43:00 PM 0
652 0 27/06/2015 7:59:00 AM 0
653 0 30/06/2015 8:27:00 AM 0
654 0 01/07/2015 8:27:00 AM 0
655 0 01/07/2015 11:27:00 PM 0
656 0 02/07/2015 9:07:00 AM 0
657 0 03/07/2015 10:59:00 AM 0
658 0 04/07/2015 8:15:00 AM 0
659 0 07/07/2015 7:55:02 AM 0
660 0 11/07/2015 8:03:12 AM 0
661 0 12/07/2015 9:19:12 AM 0
662 0 13/07/2015 8:07:14 AM 0
663 0 14/07/2015 10:59:14 AM 0
664 0 15/07/2015 9:35:14 AM 0
665 0 16/07/2015 9:11:14 AM 0
666 0 17/07/2015 8:27:14 AM 0
667 0 18/07/2015 8:59:14 AM 0
668 0 19/07/2015 9:47:14 AM 0
669 0 21/07/2015 9:55:17 AM 0
670 0 22/07/2015 8:07:17 AM 0
671 0 24/07/2015 8:11:17 AM 0
672 0 25/07/2015 11:47:17 AM 0
673 0 26/07/2015 8:23:17 AM 0
674 0 27/07/2015 8:11:17 AM 0
675 0 27/07/2015 8:11:17 AM 0
676 0 28/07/2015 8:19:17 AM 0
677 0 04/08/2015 4:08:54 PM 0
678 0 06/08/2015 9:17:42 AM 0
679 0 07/08/2015 11:00:58 AM 0
680 0 08/08/2015 8:12:58 AM 0
681 0 09/08/2015 8:28:58 AM 0
682 0 10/08/2015 8:24:58 AM 0
683 0 11/08/2015 12:02:55 PM 0
684 0 12/08/2015 8:02:25 AM 0
685 0 13/08/2015 11:23:33 AM 0
686 0 14/08/2015 8:42:23 AM 0
687 0 15/08/2015 8:41:57 AM 0
688 0 18/08/2015 8:31:58 AM 0
689 0 19/08/2015 8:15:58 AM 0
690 0 20/08/2015 8:15:58 AM 0
691 0 20/08/2015 12:15:58 PM 0
692 0 21/08/2015 8:11:58 AM 0
693 0 22/08/2015 10:28:46 AM 0
694 0 23/08/2015 4:29:48 PM 0
695 0 23/08/2015 5:15:37 PM 0
696 0 24/08/2015 8:27:38 AM 0
697 0 25/08/2015 8:11:38 AM 0
698 0 26/08/2015 8:05:16 AM 0
699 0 27/08/2015 9:06:20 AM 0
700 0 28/08/2015 8:10:22 AM 0
701 0 29/08/2015 12:26:22 PM 0
702 0 30/08/2015 8:38:22 AM 0
703 0 02/09/2015 3:49:40 PM 0
704 0 03/09/2015 9:09:40 AM 0
705 0 04/09/2015 6:17:40 AM 0
706 0 05/09/2015 12:37:40 PM 0
707 0 06/09/2015 9:57:40 AM 0
708 0 08/09/2015 12:19:03 PM 0
709 0 09/09/2015 8:11:03 AM 0
710 0 10/09/2015 8:31:03 AM 0
711 0 11/09/2015 8:23:04 AM 0
712 0 11/09/2015 8:23:04 AM 0
713 0 12/09/2015 8:03:04 AM 0
714 0 13/09/2015 8:03:04 AM 0
715 0 14/09/2015 9:03:04 AM 0
716 0 14/09/2015 9:03:04 AM 0
717 0 15/09/2015 1:43:04 PM 0
718 0 16/09/2015 8:39:04 AM 0
719 0 17/09/2015 9:15:04 AM 0
720 0 19/09/2015 8:47:04 AM 0
721 0 20/09/2015 10:03:04 AM 0
722 0 22/09/2015 8:59:04 AM 0
723 0 23/09/2015 10:15:04 AM 0
724 0 25/09/2015 10:08:02 AM 0
725 0 26/09/2015 9:04:02 AM 0
726 0 27/09/2015 9:12:07 AM 0
727 0 28/09/2015 8:56:07 AM 0
728 0 29/09/2015 8:12:08 AM 0
729 0 30/09/2015 8:36:08 AM 0
730 0 01/10/2015 8:20:08 AM 0
731 0 02/10/2015 10:12:08 AM 0
732 0 02/10/2015 10:12:08 AM 0
733 0 03/10/2015 9:33:28 AM 0
734 0 04/10/2015 10:25:28 AM 0
735 0 05/10/2015 9:41:28 AM 0
736 0 06/10/2015 8:09:28 AM 0
737 0 07/10/2015 9:13:28 AM 0
738 0 10/10/2015 9:33:28 AM 0
739 0 11/10/2015 8:17:28 AM 0
740 0 12/10/2015 8:33:56 AM 0
741 0 13/10/2015 8:41:56 AM 0
742 0 14/10/2015 8:25:56 AM 0
743 0 15/10/2015 8:29:56 AM 0
744 0 16/10/2015 10:54:00 AM 0
745 0 17/10/2015 11:46:00 AM 0
746 0 18/10/2015 9:02:00 AM 0
747 0 19/10/2015 8:10:28 AM 0
748 0 19/10/2015 9:22:28 AM 0
749 0 20/10/2015 8:34:28 AM 0
750 0 20/10/2015 9:06:28 AM 0
751 0 21/10/2015 9:02:28 AM 0
752 0 22/10/2015 9:14:28 AM 0
753 0 22/10/2015 11:30:28 AM 0
754 0 23/10/2015 10:34:28 AM 0
755 0 24/10/2015 8:06:28 AM 0
756 0 25/10/2015 8:18:28 AM 0
757 0 26/10/2015 9:02:57 AM 0
758 0 27/10/2015 8:14:57 AM 0
759 0 28/10/2015 9:10:57 AM 0
760 0 29/10/2015 8:22:57 AM 0
761 0 30/10/2015 10:02:57 AM 0
762 0 31/10/2015 8:06:57 AM 0
763 0 01/11/2015 12:18:57 PM 0
764 0 01/11/2015 12:18:57 PM 0
765 0 01/11/2015 12:18:57 PM 0
766 0 03/11/2015 8:58:57 AM 0
767 0 04/11/2015 9:34:57 AM 0
768 0 05/11/2015 8:06:57 AM 0
769 0 06/11/2015 8:06:57 AM 0
770 0 07/11/2015 8:38:57 AM 0
771 0 09/11/2015 5:18:57 PM 0
772 0 17/11/2015 4:27:04 PM 0
773 0 19/11/2015 8:11:04 AM 0
774 0 19/11/2015 9:15:04 AM 0
775 0 20/11/2015 9:43:33 AM 0
776 0 20/11/2015 9:51:33 AM 0
777 0 20/11/2015 9:51:33 AM 0
778 0 20/11/2015 10:31:33 AM 0
779 0 21/11/2015 8:19:33 AM 0
780 0 21/11/2015 8:27:33 AM 0
781 0 22/11/2015 8:11:33 AM 0
782 0 23/11/2015 9:15:33 AM 0
783 0 23/11/2015 9:55:33 AM 0
784 0 23/11/2015 2:27:34 PM 0
785 0 30/11/2015 2:43:37 PM 0
786 0 30/11/2015 3:23:37 PM 0
787 0 30/11/2015 7:23:37 PM 0
788 0 01/12/2015 8:11:37 AM 0
789 0 01/12/2015 8:15:37 AM 0
790 0 01/12/2015 8:19:37 AM 0
791 0 01/12/2015 1:39:37 PM 0
792 0 02/12/2015 8:59:38 AM 0
793 0 03/12/2015 8:31:38 AM 0
794 0 03/12/2015 9:55:38 AM 0
795 0 04/12/2015 8:23:38 AM 0
796 0 04/12/2015 8:25:11 AM 0
797 0 04/12/2015 9:31:38 AM 0
798 0 04/12/2015 2:45:47 PM 0
799 0 05/12/2015 10:54:47 AM 0
800 0 05/12/2015 11:10:12 AM 0
801 0 05/12/2015 12:25:50 PM 0
802 0 05/12/2015 12:57:50 PM 0
803 0 05/12/2015 2:09:50 PM 0
804 0 06/12/2015 6:53:50 PM 0
805 0 06/12/2015 7:13:50 PM 0
806 0 06/12/2015 7:21:50 PM 0
807 0 06/12/2015 7:41:50 PM 0
808 0 06/12/2015 7:53:50 PM 0
809 0 07/12/2015 8:45:50 AM 0
810 0 09/12/2015 11:07:11 AM 0
811 0 09/12/2015 11:07:11 AM 0
812 0 10/12/2015 10:50:14 AM 0
813 0 10/12/2015 11:00:34 AM 0
814 0 16/12/2015 2:57:06 PM 0
815 0 16/12/2015 4:20:09 PM 0
816 0 17/12/2015 8:04:09 AM 0
817 0 18/12/2015 9:48:09 AM 0
818 0 21/12/2015 11:19:26 AM 0
819 0 21/12/2015 12:14:16 PM 0
820 0 21/12/2015 12:18:16 PM 0
821 0 21/12/2015 12:18:16 PM 0
822 0 21/12/2015 12:22:16 PM 0
823 0 21/12/2015 7:42:16 PM 0
824 0 22/12/2015 8:14:16 AM 0
825 0 22/12/2015 9:58:16 AM 0
826 0 23/12/2015 9:18:17 AM 0
827 0 23/12/2015 9:26:17 AM 0
828 0 24/12/2015 8:06:17 AM 0
829 0 24/12/2015 9:02:17 AM 0
830 0 25/12/2015 8:10:17 AM 0
831 0 25/12/2015 8:30:17 AM 0
832 0 25/12/2015 8:46:17 AM 0
833 0 25/12/2015 11:18:17 AM 0
834 0 25/12/2015 1:18:17 PM 0
835 0 26/12/2015 8:10:17 AM 0
836 0 26/12/2015 8:10:17 AM 0
837 0 26/12/2015 9:18:17 AM 0
838 0 28/12/2015 8:43:08 AM 0
839 0 29/12/2015 8:14:17 AM 0
840 0 29/12/2015 8:19:08 AM 0
841 0 29/12/2015 8:34:17 AM 0
842 0 29/12/2015 11:06:17 AM 0
843 0 29/12/2015 11:06:17 AM 0
844 0 30/12/2015 8:10:17 AM 0
845 0 31/12/2015 12:46:17 PM 0
846 0 02/01/2016 11:35:44 AM 0
847 0 02/01/2016 3:19:04 PM 0
848 0 03/01/2016 8:03:04 AM 0
849 0 04/01/2016 8:07:05 AM 0
850 0 05/01/2016 8:11:05 AM 0
851 0 06/01/2016 8:03:05 AM 0
852 0 07/01/2016 8:15:05 AM 0
853 0 08/01/2016 10:03:05 AM 0
854 0 09/01/2016 8:03:05 AM 0
855 0 10/01/2016 9:07:05 AM 0
856 0 11/01/2016 8:55:05 AM 0
857 0 12/01/2016 8:03:05 AM 0
858 0 13/01/2016 8:31:05 AM 0
859 0 14/01/2016 8:23:33 AM 0
860 0 15/01/2016 9:31:33 AM 0
861 0 16/01/2016 10:23:33 AM 0
862 0 17/01/2016 9:43:33 AM 0
863 0 18/01/2016 9:07:33 AM 0
864 0 19/01/2016 9:59:35 AM 0
865 0 20/01/2016 8:11:35 AM 0
866 0 21/01/2016 7:59:35 AM 0
867 0 22/01/2016 8:07:35 AM 0
868 0 28/01/2016 6:33:16 PM 0
869 0 29/01/2016 8:02:58 AM 0
870 0 01/02/2016 10:50:33 AM 0
871 0 01/02/2016 12:02:33 PM 0
872 0 02/02/2016 8:58:34 AM 0
873 0 03/02/2016 8:19:01 AM 0
874 0 04/02/2016 8:07:01 AM 0
875 0 05/02/2016 8:19:01 AM 0
876 0 07/02/2016 10:27:01 AM 0
877 0 08/02/2016 10:12:09 AM 0
878 0 09/02/2016 10:00:09 AM 0
879 0 10/02/2016 9:24:12 AM 0
880 0 11/02/2016 8:28:12 AM 0
881 0 12/02/2016 9:56:12 AM 0
882 0 13/02/2016 10:36:12 AM 0
883 0 14/02/2016 8:32:13 AM 0
884 0 15/02/2016 3:44:13 PM 0
885 0 16/02/2016 9:12:13 AM 0
886 0 17/02/2016 4:28:13 PM 0
887 0 19/02/2016 8:40:13 AM 0
888 0 20/02/2016 8:24:13 AM 0
889 0 21/02/2016 8:00:13 AM 0
890 0 21/02/2016 8:04:13 AM 0
891 0 22/02/2016 8:12:13 AM 0
892 0 23/02/2016 8:04:13 AM 0
893 0 24/02/2016 8:44:13 AM 0
894 0 25/02/2016 8:12:13 AM 0
895 0 26/02/2016 9:16:13 AM 0
896 0 27/02/2016 1:04:13 PM 0
897 0 29/02/2016 8:12:13 AM 0
898 0 01/03/2016 12:40:13 PM 0
899 0 02/03/2016 8:36:13 AM 0
900 0 03/03/2016 9:56:13 AM 0
901 0 05/03/2016 10:48:45 AM 0
902 0 07/03/2016 10:02:53 AM 0
903 0 07/03/2016 12:40:55 PM 0
904 0 09/03/2016 8:28:55 AM 0
905 0 10/03/2016 8:12:55 AM 0
906 0 11/03/2016 8:16:55 AM 0
907 0 12/03/2016 10:04:55 AM 0
908 0 14/03/2016 1:58:03 PM 0
909 0 14/03/2016 3:26:17 PM 0
910 0 14/03/2016 3:26:17 PM 0
911 0 15/03/2016 9:02:17 AM 0
912 0 15/03/2016 4:14:17 PM 0
913 0 17/03/2016 8:25:05 AM 0
914 0 18/03/2016 9:01:05 AM 0
915 0 19/03/2016 8:57:05 AM 0
916 0 20/03/2016 8:49:05 AM 0
917 0 21/03/2016 10:09:05 AM 0
918 0 22/03/2016 8:23:02 AM 0
919 0 23/03/2016 11:35:03 AM 0
920 0 14/04/2016 10:59:07 PM 0
921 0 14/04/2016 10:59:07 PM 0
922 0 15/04/2016 8:06:09 AM 0
923 0 15/04/2016 8:06:09 AM 0
924 0 16/04/2016 8:02:10 AM 0
925 0 18/04/2016 8:32:13 AM 0
926 0 26/04/2016 11:59:49 AM 0
927 0 26/04/2016 11:59:49 AM 0
928 0 26/04/2016 12:39:41 PM 0
929 0 26/04/2016 3:47:41 PM 0
930 0 27/04/2016 9:27:41 AM 0
931 0 28/04/2016 9:27:41 AM 0
932 0 29/04/2016 9:51:41 AM 0
933 0 02/05/2016 8:43:41 AM 0
934 0 03/05/2016 8:07:41 AM 0
935 0 04/05/2016 8:23:41 AM 0
936 0 05/05/2016 12:19:41 PM 0
937 0 07/05/2016 11:31:41 AM 0
938 0 08/05/2016 8:31:41 AM 0
939 2 09/05/2016 8:55:41 AM 25.63
940 3 10/05/2016 9:03:41 AM 39.83
941 0 11/05/2016 9:48:29 AM 0
942 0 11/05/2016 9:48:29 AM 0
943 0 12/05/2016 8:02:06 AM 0
944 0 13/05/2016 10:34:06 AM 0
945 0 15/05/2016 8:26:06 AM 0
946 0 16/05/2016 9:10:06 AM 0
947 3 17/05/2016 11:02:06 AM 50.03
948 3 17/05/2016 11:02:06 AM 50.03
949 0 20/05/2016 8:50:06 AM 0
950 0 21/05/2016 8:06:06 AM 0
951 0 22/05/2016 8:46:06 AM 0
952 0 23/05/2016 8:07:38 AM 0
953 0 24/05/2016 8:46:06 AM 0
954 0 26/05/2016 10:31:38 AM 0
955 0 26/05/2016 10:31:38 AM 0
956 0 27/05/2016 8:01:46 AM 0
957 0 28/05/2016 8:05:46 AM 0
958 0 29/05/2016 8:37:46 AM 0
959 0 30/05/2016 8:01:46 AM 0
960 0 30/05/2016 8:01:46 AM 0
961 0 04/06/2016 4:13:50 PM 0
962 0 04/06/2016 4:13:50 PM 0
963 0 04/06/2016 4:13:50 PM 0
964 0 06/06/2016 11:50:33 AM 0
965 0 06/06/2016 11:50:33 AM 0
966 0 06/06/2016 11:50:33 AM 0
967 0 06/06/2016 3:26:50 PM 0
968 0 07/06/2016 11:20:33 AM 0
969 0 08/06/2016 8:28:33 AM 0
970 0 10/06/2016 11:31:04 AM 0
971 0 11/06/2016 9:52:51 AM 0
972 0 12/06/2016 9:19:05 AM 0
973 0 13/06/2016 8:05:09 AM 0
974 0 14/06/2016 8:11:05 AM 0
975 0 15/06/2016 8:17:09 AM 0
976 0 15/06/2016 10:35:05 AM 0
977 0 16/06/2016 8:03:05 AM 0
978 0 17/06/2016 10:18:39 AM 0
979 0 18/06/2016 1:25:06 PM 0
980 0 18/06/2016 2:28:13 PM 0
981 6 1 29/08/2020 9:30:00 AM 1035 36551.02 1) 4 Gates opened 0.90 M 2) 2 Gates opened 1.20 M
982 5 1.4 29/08/2020 1:30:00 PM 1920 67804.8
983 5 1.4 30/08/2020 12:00:00 AM 1920 67804.8 Gates opened on dated 29.08.2020 at 1.30 PM
984 5 1.4 31/08/2020 12:00:00 AM 1920 67804.8 Gates Opened on Dated 29.08.2020 at 1.30 PM
985 2 0.1 04/09/2020 4:00:00 PM 37.79 1334.55
986 2 0.1 05/09/2020 12:00:00 AM 37.79 1334.55 04/09/2020 8.00 PM
987 2 0.1 06/09/2020 12:00:00 AM 37.79 1334.55 05/09/2020 8.00PM
988 2 0.1 06/09/2020 4:00:00 PM 37.79 1334.55
989 2 0.1 07/09/2020 12:00:00 AM 37.79 1334.55
990 2 0.1 08/09/2020 12:00:00 AM 37.79 1334.55
991 2 0.1 09/09/2020 12:00:00 AM 32.46 1146.32
992 2 0.1 10/09/2020 12:00:00 AM 32.46 1146.32
993 2 0.1 11/09/2020 8:00:00 AM 32.46 1146.32
994 2 0.1 12/09/2020 8:00:00 AM 32.46 1146.32
995 2 0.1 12/09/2020 12:00:00 AM 32.46 1146.32
996 1 25/04/2017 10:49:56 AM 9.8
997 2 25/04/2017 12:20:27 PM 19.6
998 2 26/04/2017 7:39:50 AM 24.5
999 2 27/04/2017 9:23:51 AM 24
1000 0 27/04/2017 10:55:51 PM 0
1001 2 28/04/2017 12:11:51 PM 27.96
1002 2 01/05/2017 11:17:41 AM 35.6
1003 0 01/05/2017 12:11:30 PM 0
1004 2 24/05/2017 10:32:32 AM 16.94
1005 2 24/05/2017 11:28:32 AM 33.89
1006 2 24/05/2017 2:08:32 PM 83.6
1007 0 25/05/2017 9:56:32 PM 0
1008 0 0 21/09/2019 11:00:00 AM 0 0 All Gates are closed.
1009 0 0 22/09/2019 10:00:00 AM 0 0 All Gates are closed
Powered by © Water Resources Department (MP). All Rights Reserved.